Staphorst, Netherlands
Current Conditions -  °F | °C
As of 3:55 AM on Thursday 23 Oct 2014 (Local Time) from EHGG Reporting Station
Overcast Overcast  
Wind Chill: 45°   Ceiling: 3200
Heat Index: 48°   Visibility: 6mi
Dew Point: 46°   Wind: 7mph
Humidity: 93%   Direction: 240°WSW
Pressure: 30.12"   Gusts: NA
Location:  52.65°N, 6.21°E
Report Text: EHGG 230155Z AUTO 24006KT 9999 BKN032 OVC038 09/08 Q1020
Loading
Personal Weather Stations






























Interactive Weather Map
Tropical Storm Tracking
New forecast layout! Learn more

10-Day Weather Forecast

Advertisements
Track Severe Weather on mobile